Time;durP1;ratioP1;P1;durP2;ratioP2;P2;SDS_P1;SDS_P2;PMS_P1;PMS_P2;Temp;Humidity;BMP_temperature;BMP_pressure;BME280_temperature;BME280_humidity;BME280_pressure;Samples;Min_cycle;Max_cycle;Signal;HPM_P1;HPM_P2
2022/08/20 00:01:36;;;;;;;10.40;2.10;;;;;;;22.81;47.05;101149.06;4958299;28;20062;-80
2022/08/20 00:04:02;;;;;;;3.25;1.60;;;;;;;22.90;46.80;101144.03;4961519;28;20085;-80
2022/08/20 00:06:28;;;;;;;7.05;2.10;;;;;;;22.92;46.35;101141.63;4976000;28;20430;-82
2022/08/20 00:08:53;;;;;;;8.63;2.55;;;;;;;22.81;47.13;101140.72;4975885;28;20038;-79
2022/08/20 00:11:22;;;;;;;3.42;1.52;;;;;;;22.87;47.09;101142.00;4975828;28;20524;-80
2022/08/20 00:13:52;;;;;;;4.53;2.00;;;;;;;22.75;47.40;101145.03;4975841;28;20038;-83
2022/08/20 00:16:20;;;;;;;6.30;1.50;;;;;;;22.84;46.89;101143.53;4975945;28;20367;-82
2022/08/20 00:18:46;;;;;;;5.47;1.88;;;;;;;22.93;47.02;101132.09;4975767;28;20394;-79
2022/08/20 00:21:14;;;;;;;7.18;2.38;;;;;;;22.83;47.18;101130.00;4975626;28;20124;-80
2022/08/20 00:23:42;;;;;;;4.78;2.30;;;;;;;22.85;47.26;101135.97;4975655;28;20478;-81
2022/08/20 00:26:09;;;;;;;4.68;2.30;;;;;;;22.74;47.65;101126.72;4973987;28;20370;-85
2022/08/20 00:28:35;;;;;;;8.32;1.73;;;;;;;22.84;47.21;101129.63;4975598;28;20042;-79
2022/08/20 00:31:04;;;;;;;6.18;1.70;;;;;;;22.84;47.49;101121.25;4975275;28;20050;-80
2022/08/20 00:33:30;;;;;;;4.22;1.60;;;;;;;23.02;46.94;101115.03;4975390;28;20062;-81
2022/08/20 00:35:56;;;;;;;5.60;2.13;;;;;;;23.02;47.31;101113.03;4975457;28;20486;-79
2022/08/20 00:38:25;;;;;;;3.90;1.95;;;;;;;23.02;47.36;101106.66;4975417;28;20482;-79
2022/08/20 00:40:54;;;;;;;11.02;2.78;;;;;;;23.05;47.56;101091.94;4975333;28;20030;-84
2022/08/20 00:43:34;;;;;;;4.53;2.20;;;;;;;23.06;47.54;101097.16;4975432;28;20061;-79
2022/08/20 00:46:04;;;;;;;9.30;2.30;;;;;;;23.13;47.14;101099.19;4975335;28;20023;-82
2022/08/20 00:48:33;;;;;;;8.35;2.45;;;;;;;23.12;47.31;101097.56;4974027;28;20077;-80
2022/08/20 00:51:26;;;;;;;8.45;2.70;;;;;;;23.15;47.66;101094.00;4973835;28;20062;-83
2022/08/20 00:53:54;;;;;;;7.35;2.83;;;;;;;23.15;47.53;101094.81;4974998;28;20081;-79
2022/08/20 00:56:19;;;;;;;9.30;2.42;;;;;;;23.20;47.48;101100.00;4974964;28;20058;-80
2022/08/20 00:58:46;;;;;;;5.38;1.85;;;;;;;23.38;46.97;101088.13;4975024;28;20451;-84
2022/08/20 01:01:14;;;;;;;8.35;2.67;;;;;;;23.38;47.06;101090.94;4974993;28;20465;-80
2022/08/20 01:03:41;;;;;;;6.97;2.47;;;;;;;23.37;47.25;101084.56;4963889;28;20018;-80
2022/08/20 01:06:10;;;;;;;9.23;2.78;;;;;;;23.47;46.98;101074.63;4958635;28;20493;-80
2022/08/20 01:08:37;;;;;;;6.47;2.70;;;;;;;23.33;47.52;101058.63;4959882;28;20077;-80
2022/08/20 01:11:15;;;;;;;9.30;2.30;;;;;;;23.43;47.20;101046.75;4975013;28;20101;-79
2022/08/20 01:13:41;;;;;;;8.35;2.75;;;;;;;23.48;46.89;101046.34;4974797;28;20073;-80
2022/08/20 01:16:16;;;;;;;6.90;2.55;;;;;;;23.52;46.92;101058.31;4963285;28;20437;-80
2022/08/20 01:18:45;;;;;;;6.72;2.50;;;;;;;23.44;47.24;101059.50;4966740;28;20030;-83
2022/08/20 01:21:11;;;;;;;5.35;2.47;;;;;;;23.47;47.32;101061.47;4974598;28;20023;-79
2022/08/20 01:23:51;;;;;;;8.13;2.60;;;;;;;23.48;47.25;101062.28;4974592;28;20496;-82
2022/08/20 01:26:25;;;;;;;7.13;2.63;;;;;;;23.49;47.23;101055.50;4974586;28;20367;-85
2022/08/20 01:28:55;;;;;;;4.75;2.25;;;;;;;23.60;47.22;101053.59;4974439;28;20478;-85
2022/08/20 01:31:28;;;;;;;7.05;2.47;;;;;;;23.43;47.79;101049.53;4974355;28;20093;-80
2022/08/20 01:33:56;;;;;;;8.02;2.20;;;;;;;23.42;47.70;101044.31;4974434;28;20031;-79
2022/08/20 01:36:29;;;;;;;7.63;2.63;;;;;;;23.52;47.54;101051.94;4974019;28;20434;-79
2022/08/20 01:38:55;;;;;;;13.55;3.55;;;;;;;23.57;47.46;101039.59;4974244;28;20026;-84
2022/08/20 01:41:21;;;;;;;7.75;2.92;;;;;;;23.63;47.20;101047.22;4974255;28;20034;-80
2022/08/20 01:43:50;;;;;;;9.80;2.40;;;;;;;23.61;47.51;101029.28;4961610;28;20023;-80
2022/08/20 01:46:16;;;;;;;9.90;3.75;;;;;;;23.66;47.13;101040.84;4957335;28;20102;-80
2022/08/20 01:48:42;;;;;;;10.10;2.50;;;;;;;23.58;47.38;101033.63;4955606;28;20050;-80
2022/08/20 01:51:22;;;;;;;6.38;2.28;;;;;;;23.59;47.88;101038.03;4957935;28;20031;-81
2022/08/20 01:53:50;;;;;;;;;;;;;;;23.50;47.98;101040.38;4957931;28;20082;-81
2022/08/20 01:56:20;;;;;;;12.55;2.63;;;;;;;23.57;47.65;101034.81;4957712;28;19922;-80
2022/08/20 01:58:50;;;;;;;8.48;2.25;;;;;;;23.58;47.51;101030.84;4955675;28;20035;-80
2022/08/20 02:01:20;;;;;;;;;;;;;;;23.48;47.88;101026.03;4958211;28;20490;-80
2022/08/20 02:03:46;;;;;;;5.43;2.45;;;;;;;23.64;47.20;101022.91;4955364;28;20024;-80
2022/08/20 02:06:11;;;;;;;7.57;1.70;;;;;;;23.64;47.32;101023.69;4955180;28;20780;-80
2022/08/20 02:08:37;;;;;;;12.23;2.70;;;;;;;23.67;47.54;101031.28;4956578;28;20494;-79
2022/08/20 02:11:02;;;;;;;6.57;2.45;;;;;;;23.74;47.08;101027.72;4967722;28;20027;-80
2022/08/20 02:13:28;;;;;;;5.43;1.90;;;;;;;23.75;47.28;101029.31;4972209;28;20031;-79
2022/08/20 02:15:54;;;;;;;6.78;2.40;;;;;;;23.77;47.27;101024.13;4969798;28;20027;-80
2022/08/20 02:18:19;;;;;;;6.07;2.33;;;;;;;23.50;47.99;101029.22;4956389;28;20603;-80
2022/08/20 02:20:47;;;;;;;9.40;2.45;;;;;;;23.74;47.40;101022.16;4971915;28;20031;-79
2022/08/20 02:23:15;;;;;;;7.55;2.33;;;;;;;23.79;47.45;101016.94;4973737;28;20030;-80
2022/08/20 02:25:42;;;;;;;6.57;2.25;;;;;;;23.80;47.17;101010.19;4958857;28;20042;-80
2022/08/20 02:28:12;;;;;;;8.07;2.53;;;;;;;23.82;47.57;101015.38;4957281;28;20030;-80
2022/08/20 02:30:44;;;;;;;8.10;2.78;;;;;;;23.74;48.60;101016.56;4956858;28;20146;-85
2022/08/20 02:33:13;;;;;;;4.38;1.90;;;;;;;23.78;48.20;101006.19;4961622;28;20497;-80
2022/08/20 02:35:41;;;;;;;;;;;;;;;23.66;48.65;101012.16;4974001;28;20359;-79
2022/08/20 02:38:08;;;;;;;6.38;2.38;;;;;;;23.68;48.28;101005.00;4971581;28;19925;-80
2022/08/20 02:40:34;;;;;;;12.27;3.22;;;;;;;23.74;48.38;101005.41;4973524;28;20027;-79
2022/08/20 02:43:02;;;;;;;7.18;2.75;;;;;;;23.71;48.53;101006.97;4973698;28;20026;-79
2022/08/20 02:45:29;;;;;;;8.98;3.20;;;;;;;23.86;47.91;101013.38;4959148;28;20072;-80
2022/08/20 02:47:56;;;;;;;6.65;3.00;;;;;;;23.76;48.72;101005.78;4957840;28;20363;-80
2022/08/20 02:50:23;;;;;;;6.70;2.58;;;;;;;23.70;48.96;100999.00;4960499;28;20386;-80
2022/08/20 02:52:49;;;;;;;5.72;2.45;;;;;;;23.62;49.08;100997.41;4959505;28;20034;-80
2022/08/20 02:55:15;;;;;;;7.90;2.83;;;;;;;23.66;49.08;101004.59;4960379;28;20054;-80
2022/08/20 02:57:42;;;;;;;14.50;3.97;;;;;;;23.59;49.41;101004.56;4972498;28;20031;-80
2022/08/20 03:00:15;;;;;;;7.95;2.38;;;;;;;23.74;49.14;100997.81;4977191;28;20031;-79
2022/08/20 03:02:40;;;;;;;11.70;2.72;;;;;;;23.62;49.45;100992.63;4972526;28;20027;-81
2022/08/20 03:05:06;;;;;;;7.53;2.35;;;;;;;23.74;48.86;100989.47;4960409;28;20025;-80
2022/08/20 03:07:40;;;;;;;7.28;2.67;;;;;;;23.59;49.54;100987.81;4960157;28;20027;-80
2022/08/20 03:10:05;;;;;;;7.45;2.08;;;;;;;23.80;48.91;100990.66;4960592;28;20498;-80
2022/08/20 03:12:31;;;;;;;5.60;2.33;;;;;;;23.82;48.76;100973.53;4960514;28;20065;-80
2022/08/20 03:14:56;;;;;;;6.15;2.30;;;;;;;23.83;48.78;100977.09;4960377;28;20077;-79
2022/08/20 03:17:22;;;;;;;8.05;2.67;;;;;;;23.67;49.26;100978.28;4967999;28;20107;-84
2022/08/20 03:19:47;;;;;;;9.63;2.60;;;;;;;23.70;49.05;100973.91;4971493;28;20118;-80
2022/08/20 03:22:13;;;;;;;8.25;2.47;;;;;;;23.72;48.70;100975.09;4960316;28;20613;-80
2022/08/20 03:24:39;;;;;;;7.55;2.53;;;;;;;23.86;48.25;100960.34;4970379;28;20469;-79
2022/08/20 03:27:05;;;;;;;11.95;3.50;;;;;;;23.78;48.58;100956.75;4976617;28;20205;-80
2022/08/20 03:29:30;;;;;;;8.15;2.88;;;;;;;23.82;48.59;100962.38;4976442;28;20077;-83
2022/08/20 03:31:56;;;;;;;9.40;2.45;;;;;;;23.94;48.11;100956.38;4976600;28;20035;-79
2022/08/20 03:34:22;;;;;;;10.35;2.60;;;;;;;23.97;48.15;100963.97;4976688;28;20563;-79
2022/08/20 03:36:47;;;;;;;7.55;2.05;;;;;;;23.93;47.95;100962.34;4975199;28;20027;-79
2022/08/20 03:39:14;;;;;;;9.35;2.85;;;;;;;23.92;48.20;100963.56;4976457;28;20031;-79
2022/08/20 03:41:39;;;;;;;11.05;2.60;;;;;;;23.91;48.21;100964.75;4976376;28;20027;-80
2022/08/20 03:44:05;;;;;;;8.02;2.50;;;;;;;23.89;48.15;100970.75;4976336;28;20027;-80
2022/08/20 03:46:32;;;;;;;8.77;2.15;;;;;;;23.87;48.25;100969.53;4976392;28;20019;-79
2022/08/20 03:48:58;;;;;;;7.93;2.83;;;;;;;23.95;48.19;100959.94;4976273;28;20042;-79
2022/08/20 03:51:23;;;;;;;11.73;3.00;;;;;;;24.04;47.54;100963.16;4976242;28;20382;-79
2022/08/20 03:53:49;;;;;;;11.15;3.75;;;;;;;24.02;47.83;100971.13;4976227;28;20041;-79
2022/08/20 03:56:16;;;;;;;7.07;2.90;;;;;;;24.01;47.59;100972.31;4976242;28;20026;-79
2022/08/20 03:58:42;;;;;;;8.23;2.47;;;;;;;24.05;47.67;100967.53;4976108;28;20048;-83
2022/08/20 04:01:07;;;;;;;9.38;3.17;;;;;;;23.88;47.89;100959.94;4975303;28;20482;-79
2022/08/20 04:03:33;;;;;;;6.93;2.88;;;;;;;23.96;47.56;100944.81;4976229;28;20027;-79
2022/08/20 04:05:59;;;;;;;11.55;3.25;;;;;;;23.94;47.41;100956.38;4976020;28;20027;-79
2022/08/20 04:08:28;;;;;;;7.50;2.95;;;;;;;24.03;46.96;100955.97;4975928;28;20034;-84
2022/08/20 04:10:58;;;;;;;9.25;2.53;;;;;;;23.98;47.15;100954.38;4975886;28;20034;-83
2022/08/20 04:13:26;;;;;;;10.20;2.80;;;;;;;24.04;47.21;100952.78;4974118;28;20386;-80
2022/08/20 04:15:54;;;;;;;14.30;4.20;;;;;;;24.05;47.23;100956.38;4958794;28;20041;-80
2022/08/20 04:18:22;;;;;;;12.38;3.72;;;;;;;23.97;47.19;100949.22;4957636;28;20027;-80
2022/08/20 04:20:50;;;;;;;9.02;2.60;;;;;;;24.04;47.11;100946.41;4957801;28;20025;-80
2022/08/20 04:23:16;;;;;;;11.27;2.65;;;;;;;23.98;46.90;100948.00;4972051;28;20026;-79
2022/08/20 04:25:42;;;;;;;8.75;3.05;;;;;;;24.03;47.10;100942.00;4975574;28;20463;-79
2022/08/20 04:28:20;;;;;;;10.85;3.47;;;;;;;23.98;47.08;100939.63;4975581;28;20093;-80
2022/08/20 04:30:46;;;;;;;19.90;3.88;;;;;;;24.03;46.83;100942.84;4975382;28;20058;-83
2022/08/20 04:33:11;;;;;;;10.57;3.42;;;;;;;23.93;47.07;100942.81;4975564;28;20049;-80
2022/08/20 04:35:37;;;;;;;12.13;4.32;;;;;;;24.08;46.36;100936.81;4975525;28;20046;-79
2022/08/20 04:38:05;;;;;;;13.70;3.15;;;;;;;23.95;46.78;100940.41;4974150;28;20499;-79
2022/08/20 04:43:16;;;;;;;10.35;3.13;;;;;;;24.04;46.45;100941.63;4975591;28;20041;-80
2022/08/20 04:45:43;;;;;;;11.27;2.92;;;;;;;23.98;46.55;100943.22;4975359;28;20026;-79
2022/08/20 04:48:09;;;;;;;9.85;3.20;;;;;;;23.97;46.58;100944.41;4975297;28;20030;-84
2022/08/20 04:50:36;;;;;;;14.20;4.30;;;;;;;23.97;46.71;100938.84;4975193;28;20037;-79
2022/08/20 04:53:09;;;;;;;8.88;3.35;;;;;;;23.83;47.18;100950.00;4961594;28;20027;-80
2022/08/20 04:55:38;;;;;;;11.15;4.10;;;;;;;23.70;47.18;100946.00;4958028;28;20485;-80
2022/08/20 04:58:09;;;;;;;8.82;3.20;;;;;;;23.73;47.02;100951.59;4958736;28;20023;-80
2022/08/20 05:00:36;;;;;;;7.28;2.88;;;;;;;23.79;46.80;100947.19;4958711;28;20054;-80
2022/08/20 05:03:02;;;;;;;12.90;3.85;;;;;;;23.82;46.74;100945.63;4962339;28;20102;-79
2022/08/20 05:05:29;;;;;;;10.65;3.90;;;;;;;23.78;46.99;100944.81;4974895;28;20490;-81
2022/08/20 05:07:56;;;;;;;9.73;2.97;;;;;;;23.86;46.65;100960.34;4974892;28;20022;-79
2022/08/20 05:10:22;;;;;;;9.20;2.90;;;;;;;23.88;46.45;100959.94;4974683;28;20430;-79
2022/08/20 05:12:48;;;;;;;10.43;3.17;;;;;;;23.92;46.41;100958.78;4974785;28;20134;-79
2022/08/20 05:15:14;;;;;;;15.38;4.80;;;;;;;23.85;46.35;100950.41;4974765;28;20034;-79
2022/08/20 05:17:41;;;;;;;16.33;4.05;;;;;;;23.76;46.46;100963.94;4974729;28;20027;-85
2022/08/20 05:20:10;;;;;;;13.55;3.22;;;;;;;23.76;46.59;100969.53;4973555;28;20030;-80
2022/08/20 05:22:36;;;;;;;18.83;4.47;;;;;;;23.79;46.69;100965.94;4974570;28;20030;-85
2022/08/20 05:25:02;;;;;;;9.57;2.83;;;;;;;23.82;46.53;100967.16;4973332;28;20037;-79
2022/08/20 05:27:29;;;;;;;10.63;3.60;;;;;;;23.73;46.69;100965.56;4974533;28;20027;-79
2022/08/20 05:30:07;;;;;;;12.25;3.47;;;;;;;23.80;46.59;100973.94;4974280;28;20490;-79
2022/08/20 05:32:34;;;;;;;11.07;4.45;;;;;;;23.76;46.61;100970.31;4974499;28;20113;-79
2022/08/20 05:35:04;;;;;;;13.70;3.55;;;;;;;23.86;46.32;100979.09;4974382;28;20026;-79
2022/08/20 05:37:30;;;;;;;9.48;3.38;;;;;;;23.96;46.10;100972.75;4974470;28;20414;-81
2022/08/20 05:39:56;;;;;;;10.73;3.13;;;;;;;23.98;45.96;100975.91;4974264;28;20077;-80
2022/08/20 05:42:22;;;;;;;10.05;3.20;;;;;;;23.80;46.46;100970.31;4972980;28;20019;-79
2022/08/20 05:44:48;;;;;;;14.65;3.78;;;;;;;23.76;46.57;100981.47;4974240;28;20034;-84
2022/08/20 05:47:14;;;;;;;10.68;3.53;;;;;;;23.87;46.44;100975.09;4974140;28;20437;-79
2022/08/20 05:49:40;;;;;;;11.40;3.72;;;;;;;24.11;45.61;100974.31;4974070;28;20062;-79
2022/08/20 05:52:06;;;;;;;11.23;3.55;;;;;;;24.15;45.28;100977.09;4974079;28;20050;-79
2022/08/20 05:54:32;;;;;;;11.70;3.72;;;;;;;23.92;46.17;100964.34;4974075;28;20101;-80
2022/08/20 05:56:58;;;;;;;9.80;3.22;;;;;;;23.89;46.21;100979.09;4974077;28;20034;-79
2022/08/20 05:59:24;;;;;;;10.10;3.50;;;;;;;23.86;45.98;100979.09;4972807;28;20381;-79
2022/08/20 06:01:50;;;;;;;10.15;3.20;;;;;;;23.64;46.94;100965.13;4973949;28;20042;-79
2022/08/20 06:04:27;;;;;;;10.93;3.38;;;;;;;23.74;46.21;100966.34;4974036;28;20482;-79
2022/08/20 06:07:01;;;;;;;8.88;3.15;;;;;;;23.76;46.17;100972.31;4973890;28;20035;-80
2022/08/20 06:09:28;;;;;;;10.63;3.88;;;;;;;23.78;46.07;100967.13;4973848;28;20042;-84
2022/08/20 06:11:53;;;;;;;10.63;2.80;;;;;;;23.81;46.48;100971.94;4972757;28;20110;-80
2022/08/20 06:14:19;;;;;;;10.00;3.40;;;;;;;23.82;46.28;100967.16;4972564;28;20098;-79
2022/08/20 06:16:45;;;;;;;12.68;3.70;;;;;;;23.86;46.06;100970.72;4973781;28;20073;-79
2022/08/20 06:19:11;;;;;;;11.18;3.05;;;;;;;23.70;46.60;100963.53;4973775;28;20062;-85
2022/08/20 06:21:39;;;;;;;12.00;3.50;;;;;;;23.58;46.98;100969.50;4973730;28;20106;-80
2022/08/20 06:24:06;;;;;;;12.43;4.45;;;;;;;23.62;47.03;100969.50;4973486;28;20513;-79
2022/08/20 06:26:33;;;;;;;11.82;3.78;;;;;;;23.69;46.90;100964.75;4973608;28;20031;-79
2022/08/20 06:29:03;;;;;;;7.63;3.20;;;;;;;23.84;46.21;100967.53;4973695;28;20086;-79
2022/08/20 06:31:28;;;;;;;;;;;;;;;23.70;46.71;100971.91;4973959;28;20047;-79
2022/08/20 06:33:54;;;;;;;13.88;3.38;;;;;;;23.92;45.80;100971.91;4959908;28;20021;-80
2022/08/20 06:36:20;;;;;;;21.50;5.28;;;;;;;23.91;46.25;100971.13;4957876;28;20035;-82
2022/08/20 06:38:46;;;;;;;11.23;3.85;;;;;;;23.78;46.22;100973.50;4957760;28;20034;-79
2022/08/20 06:41:11;;;;;;;12.98;3.78;;;;;;;23.76;46.56;100975.91;4957414;28;20019;-80
2022/08/20 06:43:37;;;;;;;11.43;3.97;;;;;;;23.85;46.24;100964.34;4955665;28;20433;-80
2022/08/20 06:46:03;;;;;;;8.40;4.07;;;;;;;23.86;46.63;100965.94;4957717;28;20054;-80
2022/08/20 06:48:29;;;;;;;13.20;4.63;;;;;;;23.94;46.16;100963.94;4955501;28;20110;-79
2022/08/20 06:50:54;;;;;;;13.18;3.75;;;;;;;23.88;46.46;100966.34;4957454;28;20049;-80
2022/08/20 06:53:20;;;;;;;12.93;4.35;;;;;;;23.99;46.33;100957.97;4957819;28;20113;-80
2022/08/20 06:55:53;;;;;;;12.40;4.13;;;;;;;23.85;46.77;100967.13;4956859;28;20025;-84
2022/08/20 06:58:19;;;;;;;13.30;4.30;;;;;;;23.92;46.33;100961.56;4957176;28;20080;-84
2022/08/20 07:00:46;;;;;;;10.63;4.13;;;;;;;23.92;46.45;100960.75;4957600;28;20050;-81
2022/08/20 07:03:13;;;;;;;15.18;4.50;;;;;;;23.95;46.29;100968.31;4956914;28;20050;-83
2022/08/20 07:05:43;;;;;;;17.67;4.13;;;;;;;23.99;46.16;100966.34;4956394;28;20043;-82
2022/08/20 07:08:15;;;;;;;13.32;4.00;;;;;;;23.88;46.18;100968.31;4958860;28;20532;-80
2022/08/20 07:10:44;;;;;;;11.07;3.88;;;;;;;24.04;45.98;100975.13;4957170;28;20862;-82
2022/08/20 07:13:14;;;;;;;10.38;4.28;;;;;;;24.01;45.87;100964.75;4957730;28;20023;-79
2022/08/20 07:15:40;;;;;;;11.95;3.70;;;;;;;24.05;46.00;100964.75;4957595;28;20023;-79
2022/08/20 07:18:06;;;;;;;12.88;4.18;;;;;;;24.04;45.88;100957.59;4957274;28;20073;-79
2022/08/20 07:20:34;;;;;;;12.35;4.03;;;;;;;24.18;45.44;100965.13;4956913;28;20538;-78
2022/08/20 07:23:00;;;;;;;15.18;4.55;;;;;;;24.04;45.85;100958.38;4958733;28;20027;-78
2022/08/20 07:25:26;;;;;;;13.75;3.72;;;;;;;24.04;46.01;100957.59;4983551;28;20023;-78
2022/08/20 07:27:52;;;;;;;11.55;3.38;;;;;;;24.17;45.83;100961.53;4959999;28;20138;-79
2022/08/20 07:33:05;;;;;;;16.10;4.80;;;;;;;24.58;44.91;100973.06;4955977;28;20101;-78
2022/08/20 07:35:31;;;;;;;8.98;3.92;;;;;;;24.70;45.23;100965.44;4957340;28;20034;-78
2022/08/20 07:37:56;;;;;;;10.25;4.38;;;;;;;24.77;44.95;100959.84;4969223;28;20031;-84
2022/08/20 07:40:33;;;;;;;19.17;5.15;;;;;;;24.82;44.89;100959.44;4973755;28;20081;-80
2022/08/20 07:43:01;;;;;;;10.35;4.40;;;;;;;24.91;44.86;100966.16;4965215;28;20064;-80
2022/08/20 07:45:28;;;;;;;10.13;4.00;;;;;;;24.90;44.76;100964.56;4958554;28;20026;-79
2022/08/20 07:47:54;;;;;;;11.00;4.07;;;;;;;24.80;44.87;100975.81;4958752;28;20031;-81
2022/08/20 07:50:25;;;;;;;10.25;3.47;;;;;;;25.04;44.15;100960.97;4959249;28;20038;-82
2022/08/20 07:52:51;;;;;;;12.68;3.97;;;;;;;25.15;43.90;100953.28;4957850;28;20046;-77
2022/08/20 07:55:19;;;;;;;14.93;4.05;;;;;;;25.22;44.00;100966.44;4959787;28;20034;-77
2022/08/20 07:57:48;;;;;;;13.68;4.15;;;;;;;25.17;44.02;100958.50;4959416;28;20801;-79
2022/08/20 08:00:16;;;;;;;12.40;4.63;;;;;;;25.23;43.34;100953.25;4959463;28;20034;-77
2022/08/20 08:02:42;;;;;;;11.18;4.10;;;;;;;25.06;43.80;100955.75;4959245;28;20521;-77
2022/08/20 08:05:08;;;;;;;8.52;3.05;;;;;;;25.25;43.38;100950.88;4959739;28;20062;-77
2022/08/20 08:07:35;;;;;;;13.45;4.80;;;;;;;25.22;43.40;100958.06;4959123;28;20033;-77
2022/08/20 08:10:02;;;;;;;10.05;3.65;;;;;;;25.24;43.19;100954.84;4959159;28;20039;-77
2022/08/20 08:12:36;;;;;;;11.98;3.95;;;;;;;25.14;43.31;100960.09;4958895;28;20153;-77
2022/08/20 08:15:05;;;;;;;12.40;3.55;;;;;;;25.21;43.37;100962.06;4958959;28;20027;-77
2022/08/20 08:17:33;;;;;;;11.55;3.90;;;;;;;25.26;42.99;100960.84;4959461;28;20031;-77
2022/08/20 08:19:59;;;;;;;11.07;4.07;;;;;;;25.31;42.98;100961.19;4959172;28;20038;-78
2022/08/20 08:22:24;;;;;;;13.50;4.15;;;;;;;25.37;43.19;100958.78;4958955;28;20542;-80
2022/08/20 08:24:50;;;;;;;14.63;4.22;;;;;;;25.44;42.89;100965.13;4959580;28;20126;-80
2022/08/20 08:27:17;;;;;;;10.93;3.17;;;;;;;25.64;42.31;100964.59;4975008;28;20023;-83
2022/08/20 08:29:43;;;;;;;10.80;3.33;;;;;;;25.69;42.63;100964.16;4958101;28;20051;-83
2022/08/20 08:32:11;;;;;;;15.40;4.78;;;;;;;25.53;42.36;100961.84;4969739;28;20081;-83
2022/08/20 08:34:38;;;;;;;16.67;4.60;;;;;;;25.75;42.02;100956.94;4975588;28;20015;-83
2022/08/20 08:37:04;;;;;;;10.02;3.60;;;;;;;25.96;41.82;100967.97;4975071;28;20031;-82
2022/08/20 08:39:32;;;;;;;14.38;4.10;;;;;;;25.88;42.12;100949.66;4974942;28;20023;-83
2022/08/20 08:41:59;;;;;;;12.07;3.35;;;;;;;25.96;41.83;100953.19;4975272;28;20037;-78
2022/08/20 08:44:28;;;;;;;11.38;4.00;;;;;;;26.04;41.60;100973.50;4975150;28;20031;-82
2022/08/20 08:46:59;;;;;;;15.52;4.43;;;;;;;25.60;42.15;100961.81;4975063;28;20026;-78
2022/08/20 08:49:30;;;;;;;13.40;4.10;;;;;;;25.79;41.73;100954.91;4974997;28;20085;-82
2022/08/20 08:52:03;;;;;;;9.38;3.58;;;;;;;26.23;41.26;100956.94;4975057;28;20035;-80
2022/08/20 08:54:31;;;;;;;14.65;4.30;;;;;;;26.12;41.25;100964.63;4974897;28;20025;-82
2022/08/20 08:56:58;;;;;;;12.18;3.30;;;;;;;26.46;40.54;100963.94;4973896;28;20386;-78
2022/08/20 08:59:29;;;;;;;12.07;3.40;;;;;;;26.51;40.59;100963.47;4975260;28;20022;-82
2022/08/20 09:01:58;;;;;;;12.60;3.65;;;;;;;26.52;40.78;100962.25;4975135;28;20035;-83
2022/08/20 09:04:33;;;;;;;19.40;4.57;;;;;;;26.62;40.04;100964.16;4967007;28;20018;-81
2022/08/20 09:07:01;;;;;;;11.55;3.63;;;;;;;26.58;40.19;100968.19;4975021;28;20667;-82
2022/08/20 09:09:34;;;;;;;12.63;4.45;;;;;;;26.16;40.25;100965.41;4973454;28;20066;-83
2022/08/20 09:12:06;;;;;;;14.98;3.63;;;;;;;26.42;39.65;100955.56;4975002;28;20082;-81
2022/08/20 09:14:32;;;;;;;11.82;3.90;;;;;;;26.47;39.86;100973.94;4974869;28;20023;-78
2022/08/20 09:16:58;;;;;;;12.60;3.97;;;;;;;26.72;39.39;100974.44;4974792;28;20033;-83
2022/08/20 09:19:23;;;;;;;9.80;3.53;;;;;;;26.51;39.82;100957.84;4974771;28;20031;-82
2022/08/20 09:21:49;;;;;;;18.55;4.57;;;;;;;26.37;39.62;100950.38;4974788;28;20026;-79
2022/08/20 09:24:14;;;;;;;8.63;4.00;;;;;;;26.66;39.04;100961.31;4959898;28;20026;-78
2022/08/20 09:26:40;;;;;;;14.68;4.78;;;;;;;26.95;38.40;100953.34;4957947;28;20449;-81
2022/08/20 09:29:06;;;;;;;13.38;4.57;;;;;;;26.75;39.03;100970.81;4958471;28;20065;-78
2022/08/20 09:31:31;;;;;;;10.65;4.13;;;;;;;26.94;38.71;100971.38;4958002;28;20067;-78
2022/08/20 09:33:57;;;;;;;8.48;2.92;;;;;;;26.97;38.74;100962.91;4958261;28;20066;-80
2022/08/20 09:36:22;;;;;;;9.40;3.65;;;;;;;26.90;38.82;100963.00;4957989;28;20030;-78
2022/08/20 09:38:48;;;;;;;14.07;4.30;;;;;;;26.70;39.15;100954.44;4957740;28;20039;-79
2022/08/20 09:41:14;;;;;;;12.82;3.88;;;;;;;26.83;38.49;100961.09;4956899;28;20549;-78
2022/08/20 09:43:40;;;;;;;10.80;3.75;;;;;;;26.76;38.78;100949.19;4972038;28;20516;-81
2022/08/20 09:46:05;;;;;;;8.57;3.90;;;;;;;27.01;38.42;100941.25;4958739;28;20037;-79
2022/08/20 09:48:31;;;;;;;8.98;3.65;;;;;;;27.09;38.46;100941.97;4970296;28;20517;-78
2022/08/20 09:50:56;;;;;;;10.63;5.00;;;;;;;27.06;38.37;100946.41;4959454;28;20035;-79
2022/08/20 09:53:22;;;;;;;13.55;3.60;;;;;;;27.14;37.94;100944.31;4957404;28;20093;-79
2022/08/20 09:55:53;;;;;;;10.10;4.18;;;;;;;27.21;37.71;100941.41;4957781;28;20035;-79
2022/08/20 09:58:26;;;;;;;10.52;3.75;;;;;;;27.29;36.77;100934.47;4963372;28;20031;-79
2022/08/20 10:00:52;;;;;;;13.27;4.15;;;;;;;27.30;36.58;100940.88;4974193;28;20038;-83
2022/08/20 10:03:18;;;;;;;14.00;4.03;;;;;;;27.45;36.60;100944.28;4965880;28;20031;-79
2022/08/20 10:05:43;;;;;;;12.23;3.72;;;;;;;27.42;36.31;100929.06;4958114;28;20840;-83
2022/08/20 10:08:10;;;;;;;11.30;3.30;;;;;;;27.22;36.32;100928.19;4958005;28;20061;-80
2022/08/20 10:10:36;;;;;;;11.60;4.22;;;;;;;27.12;36.63;100934.72;4968222;28;20458;-83
2022/08/20 10:13:02;;;;;;;9.02;4.15;;;;;;;27.15;36.43;100934.69;4974027;28;20093;-83
2022/08/20 10:15:29;;;;;;;11.65;3.75;;;;;;;27.27;36.20;100925.66;4973575;28;20026;-79
2022/08/20 10:17:56;;;;;;;10.07;4.00;;;;;;;27.06;36.50;100923.19;4973580;28;20026;-79
2022/08/20 10:20:23;;;;;;;15.52;4.95;;;;;;;27.41;36.17;100933.09;4966855;28;20094;-81
2022/08/20 10:22:49;;;;;;;9.80;3.92;;;;;;;27.56;36.49;100922.44;4957825;28;20087;-82
2022/08/20 10:25:16;;;;;;;14.35;3.60;;;;;;;27.54;36.44;100922.88;4957354;28;20034;-83
2022/08/20 10:27:42;;;;;;;10.15;3.35;;;;;;;27.44;36.29;100918.22;4955492;28;20106;-78
2022/08/20 10:30:09;;;;;;;8.32;3.15;;;;;;;27.55;35.80;100918.06;4954989;28;20054;-79
2022/08/20 10:32:35;;;;;;;11.05;4.25;;;;;;;27.55;35.77;100929.28;4956174;28;20027;-79
2022/08/20 10:35:00;;;;;;;10.52;2.80;;;;;;;27.58;35.95;100918.00;4956573;28;20035;-80
2022/08/20 10:37:26;;;;;;;10.90;4.28;;;;;;;27.79;35.34;100916.88;4956187;28;20042;-79
2022/08/20 10:39:53;;;;;;;7.03;3.10;;;;;;;28.13;34.93;100910.28;4957707;28;20122;-79
2022/08/20 10:42:18;;;;;;;10.40;2.92;;;;;;;27.98;35.24;100894.91;4958048;28;20027;-84
2022/08/20 10:44:44;;;;;;;10.20;3.63;;;;;;;28.31;34.72;100907.94;4957281;28;20029;-82
2022/08/20 10:47:23;;;;;;;12.43;3.55;;;;;;;28.29;34.60;100909.56;4956354;28;20058;-80
2022/08/20 10:49:51;;;;;;;11.73;4.15;;;;;;;28.53;33.92;100891.44;4960634;28;20034;-80
2022/08/20 10:52:17;;;;;;;10.90;3.40;;;;;;;28.31;33.45;100896.69;4973770;28;20041;-85
2022/08/20 10:54:42;;;;;;;8.30;3.58;;;;;;;28.51;33.51;100893.91;4972380;28;20034;-83
2022/08/20 10:57:14;;;;;;;9.43;3.72;;;;;;;28.45;33.08;100887.19;4973749;28;20492;-83
2022/08/20 10:59:42;;;;;;;9.20;2.90;;;;;;;28.40;33.54;100888.47;4973224;28;20031;-84
2022/08/20 11:02:08;;;;;;;8.88;2.90;;;;;;;28.36;33.22;100878.56;4972849;28;20027;-80
2022/08/20 11:04:34;;;;;;;12.98;2.95;;;;;;;28.51;32.73;100904.34;4959021;28;20085;-83
2022/08/20 11:07:12;;;;;;;6.63;3.15;;;;;;;28.00;32.68;100872.78;4957459;28;20031;-83
2022/08/20 11:09:38;;;;;;;8.82;3.83;;;;;;;28.93;32.11;100895.03;4956888;28;20038;-83
2022/08/20 11:12:04;;;;;;;8.90;3.10;;;;;;;28.94;32.28;100890.19;4980877;28;20060;-85
2022/08/20 11:14:30;;;;;;;9.05;3.30;;;;;;;28.94;32.03;100904.25;4982421;28;20034;-81
2022/08/20 11:16:55;;;;;;;7.65;3.05;;;;;;;28.98;32.03;100894.53;4975864;28;20466;-81
2022/08/20 11:19:21;;;;;;;9.75;3.72;;;;;;;28.46;32.82;100897.22;4976881;28;20034;-84
2022/08/20 11:21:47;;;;;;;6.70;2.90;;;;;;;28.44;32.52;100899.66;4976954;28;20031;-81
2022/08/20 11:24:12;;;;;;;7.97;3.38;;;;;;;28.46;32.55;100894.41;4975316;28;20129;-81
2022/08/20 11:26:39;;;;;;;8.52;3.03;;;;;;;28.55;32.07;100905.06;4976822;28;20030;-80
2022/08/20 11:29:04;;;;;;;10.32;2.38;;;;;;;28.63;31.88;100896.03;4976616;28;20034;-80